HOP487 KLAL-KORL
Flight info
| Callsign | HOP487 |
|---|---|
| Flight time | 0h 16m |
| Altitude | 3000 |
| Route | DCT ESRAQ |
| Aircraft | CJ4/L-V/N |
Departure
| Time | 2026-04-22 00:39 |
|---|---|
| Airport | Lakeland Linder International Airport (KLAL) |
Arrival
| Time | 2026-04-22 00:55 |
|---|---|
| Airport | Orlando Executive Airport (KORL) |
| Time | Latitude | Longitude | Altitude | Speed | Heading |
|---|---|---|---|---|---|
| 2026-04-22 00:18 | 27.98605 | -82.02068 | 139 ft | 0 kts | 352° |
| 2026-04-22 00:32 | 27.98597 | -82.02067 | 139 ft | 2 kts | 352° |
| 2026-04-22 00:33 | 27.98584 | -82.02061 | 139 ft | 2 kts | 289° |
| 2026-04-22 00:33 | 27.98583 | -82.02057 | 139 ft | 0 kts | 260° |
| 2026-04-22 00:33 | 27.98582 | -82.02067 | 139 ft | 8 kts | 266° |
| 2026-04-22 00:33 | 27.98573 | -82.02217 | 136 ft | 21 kts | 258° |
| 2026-04-22 00:34 | 27.98568 | -82.02259 | 136 ft | 0 kts | 263° |
| 2026-04-22 00:34 | 27.98637 | -82.02295 | 134 ft | 28 kts | 0° |
| 2026-04-22 00:34 | 27.98841 | -82.02335 | 134 ft | 14 kts | 288° |
| 2026-04-22 00:34 | 27.98817 | -82.02444 | 133 ft | 20 kts | 270° |
| 2026-04-22 00:35 | 27.98814 | -82.02659 | 132 ft | 35 kts | 269° |
| 2026-04-22 00:35 | 27.98813 | -82.02948 | 132 ft | 34 kts | 270° |
| 2026-04-22 00:35 | 27.98812 | -82.03161 | 134 ft | 21 kts | 270° |
| 2026-04-22 00:35 | 27.98811 | -82.03300 | 134 ft | 14 kts | 271° |
| 2026-04-22 00:36 | 27.98845 | -82.03351 | 134 ft | 0 kts | 354° |
| 2026-04-22 00:36 | 27.98852 | -82.03352 | 134 ft | 11 kts | 356° |
| 2026-04-22 00:37 | 27.98924 | -82.03285 | 134 ft | 14 kts | 90° |
| 2026-04-22 00:37 | 27.98925 | -82.03269 | 134 ft | 2 kts | 86° |
| 2026-04-22 00:37 | 27.98925 | -82.03259 | 134 ft | 0 kts | 89° |
| 2026-04-22 00:37 | 27.98925 | -82.03258 | 134 ft | 0 kts | 89° |
| 2026-04-22 00:38 | 27.98926 | -82.03087 | 132 ft | 67 kts | 90° |
| 2026-04-22 00:38 | 27.98928 | -82.02228 | 213 ft | 137 kts | 90° |
| 2026-04-22 00:39 | 27.98926 | -82.00813 | 402 ft | 224 kts | 90° |
| 2026-04-22 00:39 | 27.98928 | -81.98831 | 1016 ft | 257 kts | 90° |
| 2026-04-22 00:39 | 27.98926 | -81.96949 | 1588 ft | 221 kts | 90° |
| 2026-04-22 00:39 | 27.98921 | -81.95312 | 1947 ft | 198 kts | 90° |
| 2026-04-22 00:40 | 27.98913 | -81.93766 | 2198 ft | 197 kts | 90° |
| 2026-04-22 00:40 | 27.98905 | -81.92222 | 2712 ft | 194 kts | 90° |
| 2026-04-22 00:40 | 27.98901 | -81.90736 | 3296 ft | 184 kts | 90° |
| 2026-04-22 00:40 | 27.98898 | -81.89315 | 3860 ft | 178 kts | 90° |
| 2026-04-22 00:41 | 27.98898 | -81.87933 | 4380 ft | 174 kts | 90° |
| 2026-04-22 00:41 | 27.98906 | -81.86555 | 4818 ft | 174 kts | 87° |
| 2026-04-22 00:41 | 27.99120 | -81.85175 | 4932 ft | 191 kts | 76° |
| 2026-04-22 00:41 | 27.99558 | -81.83640 | 4937 ft | 207 kts | 71° |
| 2026-04-22 00:42 | 28.00025 | -81.82157 | 5531 ft | 194 kts | 71° |
| 2026-04-22 00:42 | 28.00463 | -81.80743 | 6071 ft | 187 kts | 70° |
| 2026-04-22 00:42 | 28.01166 | -81.79524 | 5630 ft | 218 kts | 37° |
| 2026-04-22 00:42 | 28.02876 | -81.78958 | 4256 ft | 284 kts | 6° |
| 2026-04-22 00:43 | 28.04788 | -81.78869 | 3670 ft | 263 kts | 12° |
| 2026-04-22 00:43 | 28.06494 | -81.78432 | 3290 ft | 240 kts | 20° |
| 2026-04-22 00:43 | 28.08024 | -81.77932 | 3076 ft | 219 kts | 22° |
| 2026-04-22 00:43 | 28.09439 | -81.77439 | 2785 ft | 208 kts | 22° |
| 2026-04-22 00:44 | 28.10805 | -81.76955 | 2494 ft | 199 kts | 23° |
| 2026-04-22 00:44 | 28.12056 | -81.76540 | 2548 ft | 179 kts | 22° |
| 2026-04-22 00:44 | 28.13249 | -81.76142 | 2547 ft | 178 kts | 22° |
| 2026-04-22 00:44 | 28.14432 | -81.75740 | 2554 ft | 184 kts | 22° |
| 2026-04-22 00:45 | 28.15684 | -81.75313 | 2613 ft | 188 kts | 22° |
| 2026-04-22 00:45 | 28.16928 | -81.74896 | 2753 ft | 187 kts | 22° |
| 2026-04-22 00:45 | 28.18213 | -81.74456 | 3035 ft | 200 kts | 22° |
| 2026-04-22 00:45 | 28.19638 | -81.73954 | 3292 ft | 224 kts | 22° |
| 2026-04-22 00:46 | 28.21187 | -81.73397 | 3300 ft | 242 kts | 22° |
| 2026-04-22 00:46 | 28.22839 | -81.72788 | 3301 ft | 256 kts | 22° |
| 2026-04-22 00:46 | 28.24573 | -81.72138 | 3300 ft | 267 kts | 22° |
| 2026-04-22 00:46 | 28.26337 | -81.71479 | 3301 ft | 264 kts | 22° |
| 2026-04-22 00:47 | 28.28056 | -81.70843 | 3302 ft | 255 kts | 23° |
| 2026-04-22 00:47 | 28.29717 | -81.70211 | 3302 ft | 248 kts | 22° |
| 2026-04-22 00:47 | 28.31316 | -81.69598 | 3286 ft | 240 kts | 33° |
| 2026-04-22 00:47 | 28.32449 | -81.68297 | 3310 ft | 229 kts | 52° |
| 2026-04-22 00:48 | 28.33597 | -81.67054 | 3311 ft | 230 kts | 40° |
| 2026-04-22 00:48 | 28.34942 | -81.66110 | 3441 ft | 225 kts | 35° |
| 2026-04-22 00:48 | 28.36281 | -81.65213 | 3501 ft | 223 kts | 34° |
| 2026-04-22 00:48 | 28.37522 | -81.64157 | 3316 ft | 227 kts | 46° |
| 2026-04-22 00:49 | 28.38698 | -81.62930 | 3196 ft | 230 kts | 45° |
| 2026-04-22 00:49 | 28.39882 | -81.61707 | 3119 ft | 230 kts | 49° |
| 2026-04-22 00:49 | 28.40982 | -81.60389 | 3050 ft | 230 kts | 51° |
| 2026-04-22 00:49 | 28.42000 | -81.58991 | 2990 ft | 230 kts | 54° |
| 2026-04-22 00:50 | 28.42936 | -81.57521 | 2927 ft | 229 kts | 57° |
| 2026-04-22 00:50 | 28.44051 | -81.56183 | 2737 ft | 237 kts | 45° |
| 2026-04-22 00:50 | 28.45276 | -81.54919 | 2929 ft | 239 kts | 45° |
| 2026-04-22 00:50 | 28.46572 | -81.53714 | 3195 ft | 241 kts | 42° |
| 2026-04-22 00:51 | 28.47718 | -81.52317 | 1330 ft | 274 kts | 51° |
| 2026-04-22 00:51 | 28.48287 | -81.50144 | 1451 ft | 267 kts | 84° |
| 2026-04-22 00:51 | 28.48828 | -81.48264 | 1800 ft | 245 kts | 67° |
| 2026-04-22 00:51 | 28.49518 | -81.46576 | 2072 ft | 220 kts | 68° |
| 2026-04-22 00:52 | 28.50048 | -81.45188 | 2332 ft | 164 kts | 69° |
| 2026-04-22 00:52 | 28.50475 | -81.44094 | 2210 ft | 146 kts | 68° |
| 2026-04-22 00:52 | 28.50850 | -81.43043 | 1895 ft | 143 kts | 71° |
| 2026-04-22 00:52 | 28.51214 | -81.41984 | 1610 ft | 141 kts | 69° |
| 2026-04-22 00:53 | 28.51600 | -81.41001 | 1504 ft | 128 kts | 68° |
| 2026-04-22 00:53 | 28.51956 | -81.40115 | 1335 ft | 123 kts | 70° |
| 2026-04-22 00:53 | 28.52302 | -81.39195 | 1055 ft | 127 kts | 70° |
| 2026-04-22 00:53 | 28.52626 | -81.38295 | 951 ft | 120 kts | 69° |
| 2026-04-22 00:54 | 28.52939 | -81.37434 | 810 ft | 113 kts | 68° |
| 2026-04-22 00:54 | 28.53261 | -81.36648 | 619 ft | 107 kts | 69° |
| 2026-04-22 00:54 | 28.53548 | -81.35890 | 413 ft | 103 kts | 69° |
| 2026-04-22 00:54 | 28.53802 | -81.35166 | 299 ft | 94 kts | 68° |
| 2026-04-22 00:55 | 28.54054 | -81.34491 | 209 ft | 97 kts | 68° |
| 2026-04-22 00:55 | 28.54325 | -81.33802 | 134 ft | 96 kts | 66° |
| 2026-04-22 00:55 | 28.54667 | -81.32924 | 113 ft | 26 kts | 66° |
| 2026-04-22 00:56 | 28.54744 | -81.32813 | 113 ft | 8 kts | 355° |
| 2026-04-22 00:56 | 28.54795 | -81.32876 | 112 ft | 18 kts | 311° |
| 2026-04-22 00:56 | 28.54866 | -81.32803 | 112 ft | 22 kts | 66° |
| 2026-04-22 00:56 | 28.54930 | -81.32713 | 111 ft | 13 kts | 348° |
| 2026-04-22 00:57 | 28.54976 | -81.32808 | 111 ft | 13 kts | 338° |
| 2026-04-22 00:57 | 28.55005 | -81.32817 | 110 ft | 0 kts | 343° |